createdAt,value
2024-04-13T00:00:48.639Z,98056.16
2024-04-13T00:03:16.411Z,98047.16
2024-04-13T00:05:44.549Z,98042.13
2024-04-13T00:08:12.579Z,98042.34
2024-04-13T00:10:40.453Z,98048.00
2024-04-13T00:13:08.254Z,98050.13
2024-04-13T00:15:36.800Z,98052.66
2024-04-13T00:18:08.724Z,98046.72
2024-04-13T00:20:36.654Z,98054.47
2024-04-13T00:23:04.807Z,98055.97
2024-04-13T00:25:32.629Z,98056.31
2024-04-13T00:28:00.822Z,98061.56
2024-04-13T00:30:29.675Z,98052.44
2024-04-13T00:32:57.658Z,98054.81
2024-04-13T00:35:27.491Z,98056.09
2024-04-13T00:37:55.441Z,98061.13
2024-04-13T00:40:23.570Z,98058.00
2024-04-13T00:42:52.783Z,98064.91
2024-04-13T00:45:20.960Z,98055.81
2024-04-13T00:47:49.202Z,98059.59
2024-04-13T00:50:20.558Z,98064.19
2024-04-13T00:52:49.773Z,98058.69
2024-04-13T00:55:18.592Z,98055.53
2024-04-13T00:57:46.739Z,98057.28
2024-04-13T01:00:15.146Z,98058.38
2024-04-13T01:02:44.815Z,98055.06
2024-04-13T01:05:15.544Z,98057.56
2024-04-13T01:07:44.161Z,98054.22
2024-04-13T01:10:18.197Z,98047.59
2024-04-13T01:12:47.861Z,98056.22
2024-04-13T01:15:18.010Z,98050.88
2024-04-13T01:17:48.608Z,98051.94
2024-04-13T01:20:16.997Z,98049.06
2024-04-13T01:22:48.579Z,98038.84
2024-04-13T01:25:16.937Z,98057.50
2024-04-13T01:27:45.085Z,98053.59
2024-04-13T01:30:14.861Z,98056.75
2024-04-13T01:32:43.949Z,98058.47
2024-04-13T01:35:15.594Z,98059.25
2024-04-13T01:37:43.352Z,98059.25
2024-04-13T01:40:11.212Z,98064.13
2024-04-13T01:42:42.530Z,98040.88
2024-04-13T01:45:10.684Z,98065.72
2024-04-13T01:47:39.594Z,98063.84
2024-04-13T01:50:10.464Z,98060.69
2024-04-13T01:52:38.483Z,98055.03
2024-04-13T01:55:06.455Z,98063.63
2024-04-13T01:57:34.491Z,98061.22
2024-04-13T02:00:03.807Z,98055.53
2024-04-13T02:02:32.242Z,98059.16
2024-04-13T02:05:00.226Z,98046.09
2024-04-13T02:07:30.946Z,98057.38
2024-04-13T02:09:59.114Z,98047.78
2024-04-13T02:12:27.680Z,98039.41
2024-04-13T02:14:56.147Z,98060.78
2024-04-13T02:17:24.018Z,98054.34
2024-04-13T02:19:51.792Z,98061.47
2024-04-13T02:22:20.084Z,98055.44
2024-04-13T02:24:48.380Z,98055.44
2024-04-13T02:27:17.016Z,98060.94
2024-04-13T02:29:45.075Z,98064.22
2024-04-13T02:32:13.252Z,98063.81
2024-04-13T02:34:41.400Z,98065.41
2024-04-13T02:37:09.321Z,98071.38
2024-04-13T02:39:36.256Z,98062.47
2024-04-13T02:42:06.484Z,98062.94
2024-04-13T02:44:34.319Z,98065.41
2024-04-13T02:47:03.039Z,98071.63
2024-04-13T02:49:31.169Z,98072.56
2024-04-13T02:51:59.698Z,98072.81
2024-04-13T02:54:27.820Z,98072.50
2024-04-13T02:56:55.994Z,98068.09
2024-04-13T02:59:24.052Z,98071.16
2024-04-13T03:01:51.813Z,98075.56
2024-04-13T03:04:20.272Z,98075.56
2024-04-13T03:06:48.518Z,98079.03
2024-04-13T03:09:16.884Z,98077.88
2024-04-13T03:11:46.025Z,98074.97
2024-04-13T03:14:14.162Z,98079.16
2024-04-13T03:16:41.993Z,98081.09
2024-04-13T03:19:10.193Z,98080.63
2024-04-13T03:21:38.445Z,98089.50
2024-04-13T03:24:07.012Z,98081.94
2024-04-13T03:26:34.975Z,98079.03
2024-04-13T03:29:01.744Z,98078.38
2024-04-13T03:31:29.622Z,98082.50
2024-04-13T03:33:58.239Z,98084.34
2024-04-13T03:36:27.924Z,98087.63
2024-04-13T03:38:58.954Z,98085.97
2024-04-13T03:41:26.876Z,98083.94
2024-04-13T03:43:55.675Z,98073.66
2024-04-13T03:46:23.474Z,98083.00
2024-04-13T03:48:51.345Z,98091.47
2024-04-13T03:51:19.537Z,98088.44
2024-04-13T03:53:47.655Z,98089.91
2024-04-13T03:56:17.428Z,98093.50
2024-04-13T03:58:45.235Z,98100.72
2024-04-13T04:01:13.463Z,98092.72
2024-04-13T04:03:42.267Z,98077.03
2024-04-13T04:06:10.242Z,98098.78
2024-04-13T04:08:38.535Z,98096.41
2024-04-13T04:11:06.784Z,98091.47
2024-04-13T04:13:33.504Z,98102.31
2024-04-13T04:16:01.243Z,98112.19
2024-04-13T04:18:30.037Z,98105.31
2024-04-13T04:20:57.885Z,98098.69
2024-04-13T04:23:24.694Z,98098.56
2024-04-13T04:25:52.868Z,98106.44
2024-04-13T04:28:20.748Z,98109.94
2024-04-13T04:30:48.913Z,98104.84
2024-04-13T04:33:17.199Z,98103.50
2024-04-13T04:35:45.332Z,98111.84
2024-04-13T04:38:14.048Z,98112.84
2024-04-13T04:40:43.673Z,98109.81
2024-04-13T04:43:11.074Z,98112.75
2024-04-13T04:45:38.578Z,98117.06
2024-04-13T04:48:10.131Z,98120.88
2024-04-13T04:50:38.265Z,98128.41
2024-04-13T04:53:06.331Z,98126.50
2024-04-13T04:55:35.449Z,98126.28
2024-04-13T04:58:02.209Z,98130.47
2024-04-13T05:00:30.266Z,98132.28
2024-04-13T05:02:57.032Z,98134.44
2024-04-13T05:05:25.983Z,98138.28
2024-04-13T05:07:55.142Z,98134.78
2024-04-13T05:10:22.816Z,98147.28
2024-04-13T05:12:49.516Z,98147.94
2024-04-13T05:15:17.356Z,98143.63
2024-04-13T05:17:45.233Z,98139.72
2024-04-13T05:20:13.143Z,98145.66
2024-04-13T05:22:40.906Z,98132.78
2024-04-13T05:25:09.266Z,98132.78
2024-04-13T05:27:40.114Z,98139.09
2024-04-13T05:30:08.059Z,98129.50
2024-04-13T05:32:35.600Z,98128.47
2024-04-13T05:35:04.325Z,98124.16
2024-04-13T05:37:31.053Z,98137.09
2024-04-13T05:39:58.897Z,98144.25
2024-04-13T05:42:25.712Z,98141.88
2024-04-13T05:44:54.728Z,98140.56
2024-04-13T05:47:22.775Z,98137.72
2024-04-13T05:49:52.058Z,98135.13
2024-04-13T05:52:19.850Z,98139.63
2024-04-13T05:54:47.664Z,98132.69
2024-04-13T05:57:15.495Z,98131.41
2024-04-13T05:59:42.517Z,98128.19
2024-04-13T06:02:13.049Z,98136.69
2024-04-13T06:04:41.097Z,98125.75
2024-04-13T06:07:09.204Z,98126.59
2024-04-13T06:09:39.460Z,98117.53
2024-04-13T06:12:07.627Z,98122.97
2024-04-13T06:14:35.943Z,98113.34
2024-04-13T06:17:04.152Z,98112.25
2024-04-13T06:19:31.904Z,98113.34
2024-04-13T06:22:00.332Z,98103.13
2024-04-13T06:24:28.502Z,98110.69
2024-04-13T06:26:56.688Z,98109.00
2024-04-13T06:29:24.523Z,98099.78
2024-04-13T06:31:52.425Z,98105.38
2024-04-13T06:34:19.212Z,98099.13
2024-04-13T06:36:47.190Z,98104.03
2024-04-13T06:39:16.053Z,98096.56
2024-04-13T06:41:45.622Z,98093.50
2024-04-13T06:44:12.863Z,98099.16
2024-04-13T06:46:39.485Z,98092.66
2024-04-13T06:49:08.538Z,98098.34
2024-04-13T06:51:35.380Z,98104.25
2024-04-13T06:54:03.963Z,98090.72
2024-04-13T06:56:33.113Z,98096.59
2024-04-13T06:59:01.111Z,98094.31
2024-04-13T07:01:29.193Z,98094.69
2024-04-13T07:03:58.410Z,98086.34
2024-04-13T07:06:28.889Z,98086.75
2024-04-13T07:08:58.546Z,98083.41
2024-04-13T07:11:26.397Z,98082.09
2024-04-13T07:13:54.531Z,98082.09
2024-04-13T07:16:22.994Z,98080.25
2024-04-13T07:18:51.025Z,98077.69
2024-04-13T07:21:19.094Z,98079.66
2024-04-13T07:23:49.915Z,98079.72
2024-04-13T07:26:17.851Z,98067.16
2024-04-13T07:28:45.812Z,98075.41
2024-04-13T07:31:13.700Z,98067.03
2024-04-13T07:33:40.598Z,98054.22
2024-04-13T07:36:08.704Z,98053.16
2024-04-13T07:38:36.052Z,98052.47
2024-04-13T07:41:03.404Z,98052.59
2024-04-13T07:43:31.642Z,98057.41
2024-04-13T07:46:00.337Z,98057.94
2024-04-13T07:48:28.948Z,98059.63
2024-04-13T07:50:57.415Z,98052.44
2024-04-13T07:53:26.695Z,98048.22
2024-04-13T07:55:53.456Z,98028.94
2024-04-13T07:58:20.215Z,98023.75
2024-04-13T08:00:48.471Z,98026.28
2024-04-13T08:03:17.804Z,98028.09
2024-04-13T08:05:47.579Z,98020.06
2024-04-13T08:08:14.427Z,98016.66
2024-04-13T08:10:43.805Z,98015.03
2024-04-13T08:13:10.657Z,98002.25
2024-04-13T08:15:41.034Z,97995.44
2024-04-13T08:18:09.526Z,97995.75
2024-04-13T08:20:37.896Z,97994.47
2024-04-13T08:23:06.767Z,97996.03
2024-04-13T08:25:35.209Z,97990.97
2024-04-13T08:28:02.218Z,97992.78
2024-04-13T08:30:30.772Z,97981.03
2024-04-13T08:33:00.575Z,97992.63
2024-04-13T08:35:27.799Z,97964.44
2024-04-13T08:37:55.554Z,97973.66
2024-04-13T08:40:23.677Z,97961.63
2024-04-13T08:42:54.329Z,97945.44
2024-04-13T08:45:24.115Z,97948.63
2024-04-13T08:47:52.311Z,97942.00
2024-04-13T08:50:21.089Z,97946.16
2024-04-13T08:52:51.256Z,97931.38
2024-04-13T08:55:21.674Z,97950.94
2024-04-13T08:57:52.373Z,97927.66
2024-04-13T09:00:24.235Z,97947.44
2024-04-13T09:02:56.971Z,97939.19
2024-04-13T09:05:26.785Z,97942.56
2024-04-13T09:07:57.337Z,97933.38
2024-04-13T09:10:24.573Z,97936.84
2024-04-13T09:12:51.341Z,97928.69
2024-04-13T09:15:20.078Z,97928.69
2024-04-13T09:17:47.090Z,97933.81
2024-04-13T09:20:15.135Z,97935.81
2024-04-13T09:22:42.007Z,97925.22
2024-04-13T09:25:20.762Z,97912.41
2024-04-13T09:28:05.467Z,97919.47
2024-04-13T09:30:33.268Z,97913.03
2024-04-13T09:33:02.308Z,97911.50
2024-04-13T09:35:29.474Z,97918.28
2024-04-13T09:38:00.297Z,97903.84
2024-04-13T09:40:31.975Z,97901.59
2024-04-13T09:43:02.243Z,97893.84
2024-04-13T09:45:29.214Z,97892.00
2024-04-13T09:48:00.370Z,97887.13
2024-04-13T09:50:28.547Z,97875.81
2024-04-13T09:52:59.705Z,97873.69
2024-04-13T09:55:26.803Z,97870.69
2024-04-13T09:57:54.307Z,97870.91
2024-04-13T10:00:21.787Z,97871.88
2024-04-13T10:02:52.312Z,97866.84
2024-04-13T10:05:20.185Z,97860.50
2024-04-13T10:07:50.695Z,97853.34
2024-04-13T10:10:19.470Z,97860.47
2024-04-13T10:12:47.971Z,97863.75
2024-04-13T10:15:15.954Z,97850.72
2024-04-13T10:17:45.175Z,97860.94
2024-04-13T10:20:15.159Z,97846.47
2024-04-13T10:22:56.114Z,97833.84
2024-04-13T10:25:32.655Z,97839.81
2024-04-13T10:28:09.147Z,97838.22
2024-04-13T10:30:57.572Z,97830.91
2024-04-13T10:33:30.460Z,97827.38
2024-04-13T10:36:05.336Z,97826.81
2024-04-13T10:38:35.472Z,97821.53
2024-04-13T10:41:03.339Z,97823.16
2024-04-13T10:43:30.969Z,97828.88
2024-04-13T10:46:03.118Z,97827.47
2024-04-13T10:48:33.828Z,97817.50
2024-04-13T10:51:01.506Z,97814.66
2024-04-13T10:53:30.208Z,97810.00
2024-04-13T10:55:59.670Z,97818.59
2024-04-13T10:58:32.162Z,97812.13
2024-04-13T11:01:00.289Z,97810.41
2024-04-13T11:03:29.266Z,97814.06
2024-04-13T11:05:58.147Z,97812.84
2024-04-13T11:08:30.074Z,97812.31
2024-04-13T11:11:03.209Z,97813.44
2024-04-13T11:13:31.869Z,97812.78
2024-04-13T11:16:00.281Z,97828.00
2024-04-13T11:18:28.949Z,97800.94
2024-04-13T11:21:02.795Z,97800.19
2024-04-13T11:23:30.246Z,97777.25
2024-04-13T11:25:58.611Z,97796.06
2024-04-13T11:28:26.726Z,97790.78
2024-04-13T11:30:56.931Z,97781.75
2024-04-13T11:33:25.726Z,97778.88
2024-04-13T11:36:00.606Z,97791.28
2024-04-13T11:38:38.513Z,97778.00
2024-04-13T11:41:06.873Z,97777.16
2024-04-13T11:43:35.442Z,97776.47
2024-04-13T11:46:05.859Z,97767.59
2024-04-13T11:48:35.937Z,97759.81
2024-04-13T11:51:05.811Z,97756.59
2024-04-13T11:53:35.268Z,97754.53
2024-04-13T11:56:03.744Z,97768.63
2024-04-13T11:58:32.102Z,97757.44
2024-04-13T12:01:00.564Z,97755.81
2024-04-13T12:03:28.455Z,97735.97
2024-04-13T12:05:57.672Z,97740.59
2024-04-13T12:08:27.130Z,97734.25
2024-04-13T12:10:58.945Z,97741.94
2024-04-13T12:13:27.656Z,97732.19
2024-04-13T12:15:55.949Z,97734.91
2024-04-13T12:18:24.246Z,97742.31
2024-04-13T12:20:52.383Z,97741.81
2024-04-13T12:23:20.614Z,97735.19
2024-04-13T12:25:48.998Z,97732.75
2024-04-13T12:28:16.780Z,97728.47
2024-04-13T12:30:46.219Z,97727.34
2024-04-13T12:33:13.677Z,97727.97
2024-04-13T12:35:41.886Z,97725.25
2024-04-13T12:38:09.869Z,97727.94
2024-04-13T12:40:38.799Z,97705.69
2024-04-13T12:43:08.403Z,97701.75
2024-04-13T12:45:36.732Z,97694.56
2024-04-13T12:48:03.906Z,97674.69
2024-04-13T12:50:43.656Z,97696.81
2024-04-13T12:53:13.341Z,97693.56
2024-04-13T12:55:40.855Z,97689.53
2024-04-13T12:58:08.285Z,97680.72
2024-04-13T13:00:36.018Z,97687.63
2024-04-13T13:03:05.972Z,97681.13
2024-04-13T13:05:32.708Z,97664.84
2024-04-13T13:07:59.782Z,97663.78
2024-04-13T13:10:26.392Z,97657.59
2024-04-13T13:12:54.143Z,97661.38
2024-04-13T13:15:22.456Z,97665.69
2024-04-13T13:17:50.463Z,97656.44
2024-04-13T13:20:18.494Z,97655.94
2024-04-13T13:22:49.285Z,97635.13
2024-04-13T13:25:17.690Z,97650.03
2024-04-13T13:27:44.487Z,97658.53
2024-04-13T13:30:11.352Z,97647.00
2024-04-13T13:32:39.710Z,97636.81
2024-04-13T13:35:07.438Z,97638.09
2024-04-13T13:37:35.573Z,97634.72
2024-04-13T13:40:04.246Z,97636.41
2024-04-13T13:42:32.260Z,97639.88
2024-04-13T13:44:58.953Z,97632.66
2024-04-13T13:47:26.817Z,97628.88
2024-04-13T13:49:54.601Z,97641.66
2024-04-13T13:52:22.661Z,97632.09
2024-04-13T13:54:50.766Z,97634.38
2024-04-13T13:57:18.918Z,97631.38
2024-04-13T13:59:47.032Z,97621.25
2024-04-13T14:02:15.085Z,97622.19
2024-04-13T14:04:52.258Z,97627.44
2024-04-13T14:07:20.428Z,97623.47
2024-04-13T14:09:50.261Z,97637.94
2024-04-13T14:12:18.460Z,97635.56
2024-04-13T14:14:45.597Z,97639.09
2024-04-13T14:17:13.336Z,97645.38
2024-04-13T14:19:41.590Z,97648.97
2024-04-13T14:22:10.687Z,97645.69
2024-04-13T14:24:39.753Z,97664.09
2024-04-13T14:27:07.925Z,97660.34
2024-04-13T14:29:35.906Z,97657.72
2024-04-13T14:32:04.453Z,97620.09
2024-04-13T14:34:31.229Z,97658.19
2024-04-13T14:36:58.647Z,97652.91
2024-04-13T14:39:27.408Z,97648.03
2024-04-13T14:41:55.592Z,97668.41
2024-04-13T14:44:22.362Z,97656.22
2024-04-13T14:46:49.495Z,97665.97
2024-04-13T14:49:16.340Z,97655.56
2024-04-13T14:51:44.409Z,97647.91
2024-04-13T14:54:11.146Z,97655.44
2024-04-13T14:56:39.681Z,97654.03
2024-04-13T14:59:08.270Z,97648.03
2024-04-13T15:01:35.713Z,97649.59
2024-04-13T15:04:04.099Z,97644.69
2024-04-13T15:06:31.096Z,97650.69
2024-04-13T15:08:57.808Z,97645.81
2024-04-13T15:11:24.670Z,97632.31
2024-04-13T15:13:52.533Z,97637.84
2024-04-13T15:16:20.352Z,97640.94
2024-04-13T15:18:49.877Z,97634.41
2024-04-13T15:21:17.858Z,97642.88
2024-04-13T15:23:44.862Z,97643.31
2024-04-13T15:26:11.592Z,97640.44
2024-04-13T15:28:39.734Z,97633.81
2024-04-13T15:31:07.917Z,97630.84
2024-04-13T15:33:36.134Z,97635.06
2024-04-13T15:36:03.473Z,97640.72
2024-04-13T15:38:30.170Z,97640.50
2024-04-13T15:40:56.944Z,97636.88
2024-04-13T15:43:24.946Z,97629.88
2024-04-13T15:45:53.339Z,97636.72
2024-04-13T15:48:20.750Z,97625.56
2024-04-13T15:50:48.595Z,97630.63
2024-04-13T15:53:15.580Z,97627.16
2024-04-13T15:55:43.303Z,97635.09
2024-04-13T15:58:11.911Z,97639.00
2024-04-13T16:00:40.015Z,97635.53
2024-04-13T16:03:07.928Z,97631.97
2024-04-13T16:05:36.197Z,97637.91
2024-04-13T16:08:03.243Z,97629.94
2024-04-13T16:10:31.320Z,97641.13
2024-04-13T16:12:59.240Z,97642.06
2024-04-13T16:15:26.004Z,97641.06
2024-04-13T16:17:54.521Z,97642.22
2024-04-13T16:20:22.318Z,97649.06
2024-04-13T16:22:50.564Z,97652.00
2024-04-13T16:25:18.071Z,97650.63
2024-04-13T16:27:44.974Z,97646.81
2024-04-13T16:30:11.942Z,97656.38
2024-04-13T16:32:40.451Z,97661.88
2024-04-13T16:35:08.365Z,97665.53
2024-04-13T16:37:35.178Z,97669.56
2024-04-13T16:40:03.637Z,97663.25
2024-04-13T16:42:31.411Z,97669.94
2024-04-13T16:44:59.512Z,97672.44
2024-04-13T16:47:26.510Z,97664.81
2024-04-13T16:49:57.563Z,97683.16
2024-04-13T16:52:26.510Z,97684.22
2024-04-13T16:54:54.366Z,97684.09
2024-04-13T16:57:22.306Z,97685.84
2024-04-13T16:59:50.348Z,97650.72
2024-04-13T17:02:18.637Z,97697.25
2024-04-13T17:04:47.053Z,97701.28
2024-04-13T17:07:14.974Z,97709.13
2024-04-13T17:09:42.800Z,97696.25
2024-04-13T17:12:11.394Z,97722.59
2024-04-13T17:14:44.596Z,97721.00
2024-04-13T17:17:11.769Z,97739.78
2024-04-13T17:19:39.730Z,97743.44
2024-04-13T17:22:07.786Z,97741.38
2024-04-13T17:24:35.599Z,97747.88
2024-04-13T17:27:03.948Z,97755.66
2024-04-13T17:29:31.973Z,97758.28
2024-04-13T17:32:00.064Z,97762.97
2024-04-13T17:34:28.026Z,97749.25
2024-04-13T17:36:54.841Z,97767.41
2024-04-13T17:39:25.360Z,97771.31
2024-04-13T17:41:53.152Z,97781.69
2024-04-13T17:44:24.411Z,97786.63
2024-04-13T17:46:52.355Z,97779.84
2024-04-13T17:49:20.656Z,97792.28
2024-04-13T17:51:49.059Z,97792.56
2024-04-13T17:54:17.500Z,97805.00
2024-04-13T17:56:45.630Z,97803.47
2024-04-13T17:59:16.581Z,97814.63
2024-04-13T18:01:47.188Z,97811.25
2024-04-13T18:04:15.455Z,97820.59
2024-04-13T18:06:42.269Z,97827.31
2024-04-13T18:09:11.609Z,97834.03
2024-04-13T18:14:20.266Z,97829.25
2024-04-13T18:16:47.513Z,97846.63
2024-04-13T18:19:15.325Z,97855.94
2024-04-13T18:21:43.083Z,97859.75
2024-04-13T18:24:12.734Z,97857.19
2024-04-13T18:26:43.026Z,97859.59
2024-04-13T18:29:10.821Z,97870.63
2024-04-13T18:31:42.620Z,97878.91
2024-04-13T18:34:13.254Z,97884.00
2024-04-13T18:36:41.338Z,97891.47
2024-04-13T18:39:10.987Z,97896.13
2024-04-13T18:41:42.174Z,97903.88
2024-04-13T18:44:11.896Z,97907.00
2024-04-13T18:46:40.150Z,97907.22
2024-04-13T18:49:08.228Z,97909.88
2024-04-13T18:51:36.037Z,97912.00
2024-04-13T18:54:04.129Z,97915.13
2024-04-13T18:56:32.202Z,97914.38
2024-04-13T18:59:00.405Z,97919.03
2024-04-13T19:01:28.534Z,97909.41
2024-04-13T19:03:56.760Z,97922.56
2024-04-13T19:06:25.316Z,97923.31
2024-04-13T19:08:55.615Z,97930.59
2024-04-13T19:11:23.692Z,97931.31
2024-04-13T19:13:54.038Z,97924.28
2024-04-13T19:16:22.484Z,97929.38
2024-04-13T19:18:51.058Z,97946.38
2024-04-13T19:21:19.164Z,97951.38
2024-04-13T19:23:47.442Z,97943.69
2024-04-13T19:26:20.081Z,97943.47
2024-04-13T19:28:49.258Z,97952.16
2024-04-13T19:31:17.279Z,97955.44
2024-04-13T19:33:45.445Z,97958.38
2024-04-13T19:36:13.626Z,97951.56
2024-04-13T19:38:40.405Z,97951.22
2024-04-13T19:41:08.358Z,97947.34
2024-04-13T19:43:37.252Z,97953.06
2024-04-13T19:46:05.280Z,97955.72
2024-04-13T19:48:33.111Z,97956.84
2024-04-13T19:51:02.395Z,97960.00
2024-04-13T19:53:30.872Z,97956.84
2024-04-13T19:56:08.564Z,97959.56
2024-04-13T19:58:35.277Z,97953.72
2024-04-13T20:01:09.624Z,97957.59
2024-04-13T20:03:38.373Z,97935.81
2024-04-13T20:06:06.952Z,97952.09
2024-04-13T20:08:37.560Z,97953.66
2024-04-13T20:11:11.300Z,97944.53
2024-04-13T20:13:39.607Z,97949.50
2024-04-13T20:16:27.537Z,97945.66
2024-04-13T20:18:55.625Z,97951.31
2024-04-13T20:21:23.928Z,97957.75
2024-04-13T20:23:51.906Z,97958.88
2024-04-13T20:26:22.540Z,97950.69
2024-04-13T20:28:50.507Z,97954.00
2024-04-13T20:31:18.650Z,97958.94
2024-04-13T20:33:46.975Z,97956.38
2024-04-13T20:36:15.279Z,97964.59
2024-04-13T20:38:43.259Z,97968.34
2024-04-13T20:41:11.031Z,97967.75
2024-04-13T20:43:40.912Z,97961.31
2024-04-13T20:46:12.059Z,97968.53
2024-04-13T20:48:39.523Z,97975.69
2024-04-13T20:51:07.470Z,97973.63
2024-04-13T20:53:35.633Z,97963.94
2024-04-13T20:56:03.638Z,97978.00
2024-04-13T20:58:31.785Z,97971.84
2024-04-13T21:01:01.321Z,97962.91
2024-04-13T21:03:30.878Z,97970.06
2024-04-13T21:05:59.031Z,97973.34
2024-04-13T21:08:27.247Z,97958.88
2024-04-13T21:10:56.194Z,97966.69
2024-04-13T21:13:27.602Z,97963.25
2024-04-13T21:15:55.759Z,97949.50
2024-04-13T21:18:24.077Z,97960.81
2024-04-13T21:20:51.941Z,97965.63
2024-04-13T21:23:23.670Z,97966.22
2024-04-13T21:25:51.721Z,97970.31
2024-04-13T21:28:20.261Z,97970.31
2024-04-13T21:30:50.020Z,97929.59
2024-04-13T21:33:18.449Z,97963.81
2024-04-13T21:35:46.612Z,97976.13
2024-04-13T21:38:16.571Z,97975.88
2024-04-13T21:40:44.906Z,97979.38
2024-04-13T21:43:12.685Z,97971.53
2024-04-13T21:45:40.782Z,97974.06
2024-04-13T21:48:13.527Z,97972.84
2024-04-13T21:50:44.911Z,97973.78
2024-04-13T21:53:13.929Z,97974.31
2024-04-13T21:55:42.101Z,97975.00
2024-04-13T21:58:11.510Z,97971.31
2024-04-13T22:00:39.902Z,97964.38
2024-04-13T22:03:11.782Z,97968.47
2024-04-13T22:05:48.729Z,97974.13
2024-04-13T22:08:17.052Z,97971.00
2024-04-13T22:10:44.855Z,97974.13
2024-04-13T22:13:13.113Z,97973.50
2024-04-13T22:15:41.184Z,97979.66
2024-04-13T22:18:09.265Z,97974.47
2024-04-13T22:20:37.994Z,97979.50
2024-04-13T22:23:05.942Z,97971.63
2024-04-13T22:25:34.166Z,97977.47
2024-04-13T22:28:02.242Z,97983.91
2024-04-13T22:30:31.027Z,97961.28
2024-04-13T22:32:59.077Z,97976.97
2024-04-13T22:35:27.050Z,97978.25
2024-04-13T22:37:53.850Z,97973.53
2024-04-13T22:40:22.132Z,97973.81
2024-04-13T22:42:49.950Z,97980.16
2024-04-13T22:45:17.952Z,97975.44
2024-04-13T22:47:45.779Z,97979.56
2024-04-13T22:50:13.402Z,97981.19
2024-04-13T22:52:41.551Z,97964.19
2024-04-13T22:55:09.519Z,97974.41
2024-04-13T22:57:37.897Z,97978.94
2024-04-13T23:00:07.264Z,97974.75
2024-04-13T23:02:35.116Z,97970.97
2024-04-13T23:05:03.214Z,97976.41
2024-04-13T23:07:30.898Z,97965.25
2024-04-13T23:09:59.074Z,97975.19
2024-04-13T23:12:26.942Z,97972.03
2024-04-13T23:14:57.758Z,97970.81
2024-04-13T23:17:25.872Z,97977.25
2024-04-13T23:19:53.714Z,97977.16
2024-04-13T23:22:20.408Z,97978.72
2024-04-13T23:24:48.271Z,97986.88
2024-04-13T23:27:17.624Z,97985.16
2024-04-13T23:29:45.593Z,97986.25
2024-04-13T23:32:13.628Z,97984.53
2024-04-13T23:34:41.667Z,97988.47
2024-04-13T23:37:13.780Z,97986.56
2024-04-13T23:39:42.854Z,97976.78
2024-04-13T23:42:10.826Z,97979.94
2024-04-13T23:44:37.531Z,97977.13
2024-04-13T23:47:05.641Z,97985.94
2024-04-13T23:49:32.377Z,97988.16
2024-04-13T23:52:00.564Z,97987.72
2024-04-13T23:54:27.348Z,97991.66
2024-04-13T23:56:55.124Z,97989.94
2024-04-13T23:59:21.891Z,97987.91
